createdAt,value
2019-06-20T02:25:03.245Z,67
2019-06-20T02:29:59.612Z,69
2019-06-20T05:15:02.943Z,71
2019-06-20T05:19:59.528Z,74
2019-06-20T05:24:59.584Z,72
2019-06-20T05:29:59.528Z,68
2019-06-20T05:35:02.810Z,69
2019-06-20T05:39:59.574Z,67
2019-06-20T05:44:59.416Z,58
2019-06-20T05:49:59.617Z,62
2019-06-20T05:54:59.598Z,63
2019-06-20T05:59:59.428Z,65
2019-06-20T06:04:59.457Z,59
2019-06-20T06:10:03.697Z,63
2019-06-20T06:15:01.005Z,64
2019-06-20T06:19:59.286Z,65
2019-06-20T06:24:59.343Z,60
2019-06-20T06:29:59.479Z,64
2019-06-20T06:34:59.518Z,59
2019-06-20T06:39:59.396Z,58
2019-06-20T06:44:59.577Z,63
2019-06-20T06:49:59.328Z,57
2019-06-20T06:54:59.556Z,54
2019-06-20T06:59:59.452Z,55
2019-06-20T07:04:59.646Z,52
2019-06-20T07:09:59.253Z,52
2019-06-20T07:14:59.156Z,54
2019-06-20T07:19:59.235Z,54
2019-06-20T07:24:59.408Z,57
2019-06-20T07:29:59.174Z,53
2019-06-20T07:34:59.458Z,47
2019-06-20T07:39:59.237Z,50
2019-06-20T07:44:59.294Z,50
2019-06-20T07:49:59.398Z,45
2019-06-20T07:54:59.362Z,47
2019-06-20T07:59:59.169Z,38
2019-06-20T08:04:59.168Z,39
2019-06-20T08:09:59.141Z,37
2019-06-20T08:15:13.992Z,35
2019-06-20T08:19:59.192Z,40
2019-06-20T08:24:59.173Z,44
2019-06-20T08:29:59.342Z,41
2019-06-20T08:35:00.537Z,41
2019-06-20T08:40:00.015Z,38
2019-06-20T08:44:59.480Z,40
2019-06-20T08:49:59.749Z,40
2019-06-20T08:54:59.609Z,33
2019-06-20T09:00:00.591Z,39
2019-06-20T09:05:00.296Z,36
2019-06-20T09:09:59.845Z,37
2019-06-20T09:14:59.547Z,37
2019-06-20T09:20:00.242Z,34
2019-06-20T09:25:00.732Z,35
2019-06-20T09:30:00.505Z,33
2019-06-20T09:34:59.508Z,38
2019-06-20T09:39:59.321Z,36
2019-06-20T09:44:59.640Z,37
2019-06-20T09:49:59.469Z,39
2019-06-20T09:54:59.419Z,34
2019-06-20T10:00:07.673Z,32
2019-06-20T10:04:59.195Z,34
2019-06-20T10:09:59.386Z,31
2019-06-20T10:14:59.160Z,34
2019-06-20T10:19:59.242Z,33
2019-06-20T10:24:59.507Z,34
2019-06-20T10:30:13.489Z,36
2019-06-20T10:34:59.676Z,32
2019-06-20T10:39:59.447Z,26
2019-06-20T10:44:59.425Z,29
2019-06-20T10:49:59.262Z,25
2019-06-20T10:54:59.401Z,32
2019-06-20T10:59:59.361Z,29
2019-06-20T11:04:59.437Z,24
2019-06-20T11:09:59.723Z,24
2019-06-20T11:14:59.297Z,20
2019-06-20T11:19:59.303Z,22
2019-06-20T11:24:59.337Z,22
2019-06-20T11:29:59.300Z,12
2019-06-20T11:34:59.463Z,11
2019-06-20T11:39:59.342Z,12
2019-06-20T11:44:59.432Z,10
2019-06-20T11:49:59.190Z,10
2019-06-20T11:54:59.095Z,9
2019-06-20T11:59:59.298Z,13
2019-06-20T12:04:59.440Z,13
2019-06-20T12:09:59.965Z,13
2019-06-20T12:14:59.235Z,14
2019-06-20T12:19:59.525Z,13
2019-06-20T12:24:59.295Z,10
2019-06-20T12:29:59.987Z,10
2019-06-20T12:34:59.071Z,9
2019-06-20T12:39:59.257Z,9
2019-06-20T12:44:59.782Z,7
2019-06-20T12:49:59.241Z,9
2019-06-20T12:54:59.247Z,10
2019-06-20T12:59:59.558Z,6
2019-06-20T13:04:58.869Z,6
2019-06-20T13:09:59.048Z,6
2019-06-20T13:14:58.827Z,9
2019-06-20T13:19:59.117Z,9
2019-06-20T13:24:59.064Z,7
2019-06-20T13:29:59.239Z,7
2019-06-20T13:34:59.180Z,9
2019-06-20T13:39:59.008Z,9
2019-06-20T13:44:58.965Z,8
2019-06-20T13:49:59.019Z,9
2019-06-20T13:54:59.083Z,8
2019-06-20T13:59:58.984Z,6
2019-06-20T22:45:22.235Z,14
2019-06-20T23:15:06.506Z,14
2019-06-20T23:20:01.754Z,15
2019-06-20T23:25:39.227Z,12
2019-06-20T23:30:00.927Z,13
2019-06-20T23:35:00.655Z,12
2019-06-20T23:40:00.968Z,11
2019-06-20T23:45:00.844Z,14
2019-06-20T23:50:00.847Z,11
2019-06-20T23:55:00.850Z,16
